Time;durP1;ratioP1;P1;durP2;ratioP2;P2;SDS_P1;SDS_P2;PMS_P1;PMS_P2;Temp;Humidity;BMP_temperature;BMP_pressure;BME280_temperature;BME280_humidity;BME280_pressure;Samples;Min_cycle;Max_cycle;Signal;HPM_P1;HPM_P2
2023/03/07 00:01:41;;;;;;;;;17.00;11.00;;;;;7.37;74.21;99891.97;5118413;27;45543;-61
2023/03/07 00:04:08;;;;;;;;;11.67;9.67;;;;;7.36;74.34;99898.09;5118476;27;45423;-61
2023/03/07 00:06:33;;;;;;;;;15.67;11.00;;;;;6.92;74.60;99820.53;5118538;27;45410;-61
2023/03/07 00:09:00;;;;;;;;;18.33;12.33;;;;;7.30;74.29;99888.59;5118156;27;46321;-61
2023/03/07 00:11:26;;;;;;;;;12.00;10.00;;;;;7.27;74.43;99886.06;5118419;27;45389;-61
2023/03/07 00:13:52;;;;;;;;;17.67;11.00;;;;;7.21;74.39;99876.59;5118389;27;45376;-61
2023/03/07 00:16:20;;;;;;;;;16.67;11.00;;;;;7.30;74.22;99891.22;5118323;27;45209;-61
2023/03/07 00:18:46;;;;;;;;;11.00;9.67;;;;;7.23;74.38;99873.94;5118425;27;45509;-61
2023/03/07 00:21:13;;;;;;;;;17.67;11.00;;;;;7.26;74.59;99882.59;5118155;27;45427;-61
2023/03/07 00:23:41;;;;;;;;;11.00;8.67;;;;;7.29;74.45;99884.25;5118389;27;45438;-61
2023/03/07 00:26:11;;;;;;;;;17.33;11.67;;;;;7.28;74.47;99888.66;5118446;27;45543;-61
2023/03/07 00:28:36;;;;;;;;;16.00;13.67;;;;;7.29;74.55;99884.25;5118068;27;45328;-61
2023/03/07 00:31:06;;;;;;;;;11.33;9.00;;;;;7.23;73.94;99871.31;5118224;27;45300;-61
2023/03/07 00:33:32;;;;;;;;;16.00;15.00;;;;;7.35;73.99;99883.25;5118368;27;45411;-61
2023/03/07 00:36:00;;;;;;;;;16.67;10.00;;;;;7.32;74.07;99882.44;5118374;27;45576;-61
2023/03/07 00:38:27;;;;;;;;;9.33;9.33;;;;;7.31;74.18;99870.25;5117887;27;47431;-61
2023/03/07 00:40:57;;;;;;;;;14.00;10.00;;;;;7.36;73.72;99879.75;5117952;27;45298;-61
2023/03/07 00:43:22;;;;;;;;;12.33;12.33;;;;;7.34;74.07;99871.09;5117993;27;45289;-61
2023/03/07 00:45:48;;;;;;;;;13.33;10.67;;;;;7.36;73.65;99875.34;5118205;27;45244;-61
2023/03/07 00:48:13;;;;;;;;;11.00;10.00;;;;;7.35;73.67;99867.53;5118043;27;45315;-61
2023/03/07 00:50:38;;;;;;;;;13.00;11.00;;;;;7.29;73.80;99866.81;5117325;27;45690;-61
2023/03/07 00:53:04;;;;;;;;;18.33;11.67;;;;;7.31;73.54;99865.00;5121671;27;45325;-61
2023/03/07 00:55:29;;;;;;;;;14.33;12.00;;;;;7.25;73.76;99854.69;5121844;27;45416;-61
2023/03/07 00:57:54;;;;;;;;;19.00;12.33;;;;;7.34;73.63;99865.84;5121449;27;46602;-61
2023/03/07 01:00:20;;;;;;;;;13.33;10.33;;;;;7.25;73.50;99856.44;5121282;27;45282;-61
2023/03/07 01:02:45;;;;;;;;;16.00;12.00;;;;;7.29;73.95;99865.94;5121515;27;45362;-61
2023/03/07 01:05:10;;;;;;;;;14.33;12.67;;;;;7.27;73.75;99857.25;5121443;27;45311;-61
2023/03/07 01:07:36;;;;;;;;;19.33;15.67;;;;;7.26;74.31;99861.66;5121001;27;45449;-61
2023/03/07 01:10:01;;;;;;;;;16.67;14.33;;;;;7.25;74.43;99861.69;5121332;27;45272;-61
2023/03/07 01:12:26;;;;;;;;;18.00;11.67;;;;;7.25;74.60;99865.16;5121413;27;45352;-61
2023/03/07 01:14:52;;;;;;;;;15.33;12.33;;;;;7.23;74.72;99863.47;5121418;27;45387;-61
2023/03/07 01:17:17;;;;;;;;;13.00;9.00;;;;;7.20;74.89;99850.44;5120823;27;46652;-61
2023/03/07 01:19:42;;;;;;;;;15.67;12.33;;;;;7.19;75.26;99854.84;5121054;27;45294;-61
2023/03/07 01:22:08;;;;;;;;;18.00;12.33;;;;;7.06;74.81;99830.69;5121419;27;45335;-61
2023/03/07 01:24:33;;;;;;;;;15.00;14.33;;;;;7.11;75.00;99838.44;5121306;27;45310;-61
2023/03/07 01:26:58;;;;;;;;;19.67;14.33;;;;;7.16;74.95;99849.69;5120870;27;46525;-61
2023/03/07 01:29:24;;;;;;;;;16.33;15.00;;;;;7.10;75.53;99844.56;5120876;27;45228;-61
2023/03/07 01:31:49;;;;;;;;;18.67;13.33;;;;;7.02;75.20;99834.28;5120904;27;45388;-61
2023/03/07 01:34:14;;;;;;;;;18.33;12.67;;;;;7.10;75.83;99834.09;5121105;27;45465;-61
2023/03/07 01:36:40;;;;;;;;;14.33;12.00;;;;;7.03;76.90;99827.28;5120889;27;45978;-61
2023/03/07 01:39:12;;;;;;;;;17.67;15.67;;;;;7.10;76.02;99837.59;5120946;27;45307;-61
2023/03/07 01:41:38;;;;;;;;;15.67;10.67;;;;;7.09;76.73;99830.63;5120823;27;45256;-61
2023/03/07 01:44:17;;;;;;;;;19.00;13.00;;;;;7.02;76.71;99818.56;5121038;27;45310;-61
2023/03/07 01:46:59;;;;;;;;;12.67;12.00;;;;;7.04;77.08;99827.22;5120324;27;46453;-61
2023/03/07 01:49:30;;;;;;;;;14.67;12.67;;;;;7.01;76.92;99814.22;5120547;27;45269;-61
2023/03/07 01:52:07;;;;;;;;;21.33;15.67;;;;;7.01;77.51;99818.59;5120749;27;45322;-61
2023/03/07 01:54:37;;;;;;;;;4.00;4.00;;;;;6.91;77.51;99794.41;5120938;27;45315;-61
2023/03/07 01:57:03;;;;;;;;;17.67;14.67;;;;;6.94;77.90;99796.94;5120257;27;47337;-61
2023/03/07 01:59:35;;;;;;;;;13.33;12.00;;;;;6.99;78.16;99808.19;5120359;27;45458;-61
2023/03/07 02:02:06;;;;;;;;;13.67;11.33;;;;;6.93;78.99;99803.09;5119905;27;45286;-61
2023/03/07 02:04:41;;;;;;;;;12.00;12.00;;;;;6.88;78.92;99795.31;5120427;27;45336;-61
2023/03/07 02:07:09;;;;;;;;;16.67;11.67;;;;;6.91;79.38;99789.16;5120003;27;46311;-61
2023/03/07 02:09:35;;;;;;;;;16.67;15.00;;;;;6.77;78.42;99765.94;5119449;27;45364;-61
2023/03/07 02:12:01;;;;;;;;;19.00;12.33;;;;;6.83;79.40;99771.03;5120404;27;45292;-61
2023/03/07 02:14:26;;;;;;;;;18.00;11.00;;;;;6.91;78.90;99784.81;5120360;27;45355;-61
2023/03/07 02:16:52;;;;;;;;;12.00;10.00;;;;;6.89;79.16;99776.13;5119880;27;45621;-61
2023/03/07 02:19:41;;;;;;;;;18.67;12.00;;;;;6.92;79.17;99776.03;5120302;27;45429;-61
2023/03/07 02:22:10;;;;;;;;;13.33;11.67;;;;;6.93;79.06;99774.31;5120495;27;45297;-61
2023/03/07 02:24:55;;;;;;;;;17.67;11.67;;;;;6.89;79.36;99762.19;5120342;27;45501;-61
2023/03/07 02:27:23;;;;;;;;;15.33;10.67;;;;;6.88;79.46;99753.44;5119731;27;46726;-61
2023/03/07 02:29:49;;;;;;;;;17.00;11.67;;;;;6.89;79.83;99760.41;5119846;27;45331;-61
2023/03/07 02:32:14;;;;;;;;;13.33;13.33;;;;;6.87;79.36;99751.75;5120092;27;45421;-61
2023/03/07 02:34:40;;;;;;;;;11.00;10.67;;;;;6.91;79.69;99750.78;5120121;27;45477;-61
2023/03/07 02:37:17;;;;;;;;;13.33;12.67;;;;;6.82;79.71;99740.53;5119747;27;47005;-61
2023/03/07 02:39:44;;;;;;;;;19.00;15.33;;;;;6.89;79.08;99749.94;5119802;27;45258;-61
2023/03/07 02:42:23;;;;;;;;;12.33;9.33;;;;;6.93;79.10;99750.75;5119915;27;45322;-61
2023/03/07 02:44:58;;;;;;;;;16.00;12.00;;;;;6.91;79.03;99736.81;5120037;27;45301;-61
2023/03/07 02:47:23;;;;;;;;;12.67;11.33;;;;;6.94;78.96;99744.59;5119477;27;46230;-61
2023/03/07 02:49:48;;;;;;;;;13.67;10.67;;;;;6.90;79.20;99740.38;5119515;27;45449;-61
2023/03/07 02:52:14;;;;;;;;;19.67;13.33;;;;;6.94;79.54;99734.13;5119898;27;45438;-61
2023/03/07 02:54:39;;;;;;;;;10.00;7.33;;;;;6.95;79.41;99733.25;5119907;27;45379;-61
2023/03/07 02:57:04;;;;;;;;;13.00;10.00;;;;;6.95;78.95;99728.84;5119454;27;45391;-61
2023/03/07 02:59:30;;;;;;;;;14.67;13.00;;;;;6.93;78.99;99733.28;5119658;27;45480;-61
2023/03/07 03:01:56;;;;;;;;;11.00;11.00;;;;;6.90;79.05;99727.28;5119447;27;45485;-61
2023/03/07 03:04:22;;;;;;;;;11.67;8.00;;;;;6.95;79.17;99738.47;5119655;27;45469;-61
2023/03/07 03:06:47;;;;;;;;;12.33;12.00;;;;;6.97;78.83;99734.94;5118957;27;45390;-61
2023/03/07 03:09:13;;;;;;;;;12.67;12.00;;;;;6.95;78.62;99731.47;5119338;27;45294;-61
2023/03/07 03:11:38;;;;;;;;;18.33;11.00;;;;;6.94;78.74;99724.53;5119775;27;45313;-61
2023/03/07 03:14:03;;;;;;;;;12.00;10.33;;;;;6.93;78.46;99725.44;5118715;27;45300;-61
2023/03/07 03:16:29;;;;;;;;;11.00;11.00;;;;;6.93;78.57;99725.44;5118817;27;46471;-61
2023/03/07 03:18:54;;;;;;;;;14.00;12.00;;;;;6.92;78.69;99723.69;5119287;27;45362;-61
2023/03/07 03:21:19;;;;;;;;;17.67;12.67;;;;;6.80;78.41;99698.69;5119235;27;45228;-61
2023/03/07 03:23:45;;;;;;;;;15.00;11.67;;;;;6.93;78.74;99725.44;5119613;27;45403;-61
2023/03/07 03:26:10;;;;;;;;;16.00;11.67;;;;;6.83;78.76;99707.41;5117559;27;48181;-61
2023/03/07 03:28:37;;;;;;;;;16.33;15.33;;;;;6.93;78.68;99716.75;5118974;27;45462;-61
2023/03/07 03:31:09;;;;;;;;;18.00;12.67;;;;;6.86;79.46;99710.78;5119066;27;45413;-61
2023/03/07 03:33:35;;;;;;;;;17.00;14.00;;;;;6.87;79.08;99711.63;5119201;27;45442;-61
2023/03/07 03:36:10;;;;;;;;;13.00;11.33;;;;;6.85;79.20;99709.06;5118639;27;47087;-61
2023/03/07 03:38:35;;;;;;;;;14.67;11.67;;;;;6.81;79.23;99702.16;5118823;27;45340;-61
2023/03/07 03:41:06;;;;;;;;;12.00;12.00;;;;;6.83;79.61;99700.41;5118969;27;46011;-61
2023/03/07 03:43:33;;;;;;;;;18.00;13.00;;;;;6.77;79.88;99704.00;5119161;27;45500;-61
2023/03/07 03:45:59;;;;;;;;;20.00;15.67;;;;;6.75;80.43;99703.19;5118455;27;46475;-61
2023/03/07 03:48:25;;;;;;;;;13.00;12.00;;;;;6.75;80.35;99703.19;5118796;27;45770;-61
2023/03/07 03:50:59;;;;;;;;;12.67;9.33;;;;;6.71;80.73;99691.09;5118786;27;45284;-61
2023/03/07 03:53:25;;;;;;;;;16.33;14.00;;;;;6.67;80.96;99699.91;5118985;27;45476;-61
2023/03/07 03:55:50;;;;;;;;;16.67;12.33;;;;;6.75;81.32;99697.97;5118566;27;45310;-61
2023/03/07 03:58:15;;;;;;;;;13.33;13.00;;;;;6.73;81.81;99698.91;5118887;27;45217;-61
2023/03/07 04:00:43;;;;;;;;;17.33;14.00;;;;;6.67;81.88;99699.06;5118782;27;45385;-61
2023/03/07 04:03:08;;;;;;;;;17.00;14.00;;;;;6.44;82.29;99658.59;5118614;27;45385;-61
2023/03/07 04:05:33;;;;;;;;;15.33;15.00;;;;;6.63;82.53;99688.63;5118317;27;45439;-61
2023/03/07 04:07:59;;;;;;;;;18.33;14.00;;;;;6.68;82.71;99700.75;5118270;27;45158;-61
2023/03/07 04:10:24;;;;;;;;;17.67;16.33;;;;;6.64;83.52;99689.50;5118555;27;45305;-61
2023/03/07 04:12:50;;;;;;;;;18.00;16.00;;;;;6.69;82.82;99692.00;5118851;27;45269;-61
2023/03/07 04:15:16;;;;;;;;;18.67;14.00;;;;;6.68;82.89;99692.91;5118184;27;46499;-61
2023/03/07 04:17:41;;;;;;;;;19.67;15.67;;;;;6.61;83.21;99676.50;5118145;27;45458;-61
2023/03/07 04:20:13;;;;;;;;;17.67;14.33;;;;;6.66;82.81;99679.88;5118405;27;45365;-61
2023/03/07 04:22:38;;;;;;;;;15.67;14.33;;;;;6.63;82.54;99670.31;5118653;27;45520;-61
2023/03/07 04:25:03;;;;;;;;;18.00;14.00;;;;;6.41;83.10;99632.53;5118985;27;45249;-61
2023/03/07 04:27:29;;;;;;;;;17.00;15.00;;;;;6.43;82.94;99635.94;5121536;27;45478;-61
2023/03/07 04:29:54;;;;;;;;;12.33;12.33;;;;;6.57;82.70;99659.16;5122047;27;45433;-61
2023/03/07 04:32:20;;;;;;;;;15.33;12.00;;;;;6.42;82.73;99636.88;5121919;27;45271;-61
2023/03/07 04:34:45;;;;;;;;;15.33;11.67;;;;;6.63;82.87;99674.72;5121847;27;45340;-61
2023/03/07 04:37:10;;;;;;;;;11.33;10.00;;;;;6.54;83.27;99649.63;5121661;27;45442;-61
2023/03/07 04:39:35;;;;;;;;;11.33;8.00;;;;;6.57;82.85;99657.41;5122016;27;45399;-61
2023/03/07 04:42:01;;;;;;;;;9.00;8.00;;;;;6.57;82.91;99648.72;5122015;27;45316;-61
2023/03/07 04:44:26;;;;;;;;;10.67;9.33;;;;;6.50;82.92;99641.91;5121631;27;46305;-61
2023/03/07 04:46:51;;;;;;;;;10.33;8.00;;;;;6.51;83.20;99646.25;5121391;27;45393;-61
2023/03/07 04:49:17;;;;;;;;;9.00;8.00;;;;;6.55;82.90;99660.94;5121789;27;45383;-61
2023/03/07 04:51:42;;;;;;;;;17.33;16.00;;;;;6.53;82.97;99660.13;5121800;27;45402;-61
2023/03/07 04:54:07;;;;;;;;;14.33;11.67;;;;;6.53;83.28;99657.53;5121743;27;45348;-61
2023/03/07 04:56:33;;;;;;;;;15.67;12.33;;;;;6.50;83.89;99649.75;5121545;27;45354;-61
2023/03/07 04:58:58;;;;;;;;;17.00;14.00;;;;;6.43;83.41;99643.78;5121782;27;45306;-61
2023/03/07 05:01:24;;;;;;;;;17.00;13.67;;;;;6.50;83.19;99649.75;5121661;27;45425;-61
2023/03/07 05:03:49;;;;;;;;;9.33;9.33;;;;;6.45;83.70;99647.25;5120896;27;45534;-61
2023/03/07 05:06:15;;;;;;;;;16.00;15.33;;;;;6.47;83.56;99649.84;5121177;27;45331;-61
2023/03/07 05:08:40;;;;;;;;;15.33;13.33;;;;;6.47;83.71;99648.06;5121387;27;45533;-61
2023/03/07 05:11:06;;;;;;;;;19.00;14.00;;;;;6.40;83.82;99638.66;5121559;27;45195;-61
2023/03/07 05:13:31;;;;;;;;;17.67;15.33;;;;;6.39;83.96;99635.19;5108883;27;45500;-61
2023/03/07 05:15:58;;;;;;;;;16.00;15.67;;;;;6.38;83.59;99635.22;5111883;27;45579;-61
2023/03/07 05:18:24;;;;;;;;;17.67;13.33;;;;;6.39;83.70;99635.19;5100535;27;45316;-61
2023/03/07 05:20:50;;;;;;;;;12.67;11.00;;;;;6.39;83.81;99632.56;5100789;27;45364;-61
2023/03/07 05:23:17;;;;;;;;;18.33;16.33;;;;;6.37;83.70;99633.50;5100365;27;46305;-61
2023/03/07 05:25:42;;;;;;;;;15.67;9.00;;;;;6.31;83.77;99621.41;5100278;27;45519;-61
2023/03/07 05:28:07;;;;;;;;;14.67;10.33;;;;;6.34;83.90;99625.72;5100399;27;45367;-61
2023/03/07 05:30:33;;;;;;;;;15.00;11.33;;;;;6.23;84.02;99605.94;5100672;27;45452;-61
2023/03/07 05:32:58;;;;;;;;;23.00;14.00;;;;;6.15;83.66;99604.38;5100110;27;45647;-61
2023/03/07 05:35:24;;;;;;;;;14.33;12.67;;;;;6.33;84.04;99631.84;5100406;27;45254;-61
2023/03/07 05:37:50;;;;;;;;;14.33;10.00;;;;;6.28;84.04;99629.34;5099561;27;45498;-61
2023/03/07 05:40:16;;;;;;;;;14.67;10.33;;;;;6.04;84.07;99589.81;5100170;27;45406;-61
2023/03/07 05:42:41;;;;;;;;;10.67;10.67;;;;;6.30;84.47;99638.00;5100196;27;46484;-61
2023/03/07 05:45:08;;;;;;;;;9.33;8.00;;;;;6.31;84.37;99634.50;5100068;27;45240;-61
2023/03/07 05:47:33;;;;;;;;;12.00;10.33;;;;;6.21;85.11;99618.16;5099991;27;45314;-61
2023/03/07 05:49:59;;;;;;;;;16.67;10.33;;;;;6.36;84.78;99629.16;5100042;27;45439;-61
2023/03/07 05:52:25;;;;;;;;;16.00;10.00;;;;;6.37;84.37;99626.50;5099798;27;46937;-61
2023/03/07 05:54:50;;;;;;;;;11.00;9.00;;;;;6.14;84.22;99586.97;5100125;27;45298;-61
2023/03/07 05:57:15;;;;;;;;;8.00;5.67;;;;;6.42;84.20;99619.41;5100129;27;45245;-61
2023/03/07 05:59:41;;;;;;;;;11.33;10.67;;;;;6.44;84.20;99622.00;5099636;27;45383;-61
2023/03/07 06:02:06;;;;;;;;;14.33;9.00;;;;;6.34;84.19;99610.88;5119296;27;45336;-61
2023/03/07 06:04:31;;;;;;;;;12.00;12.00;;;;;6.45;84.18;99631.56;5120489;27;45313;-61
2023/03/07 06:06:58;;;;;;;;;13.33;9.67;;;;;6.44;83.89;99617.59;5120416;27;45788;-62
2023/03/07 06:09:24;;;;;;;;;11.67;11.33;;;;;6.48;84.18;99621.03;5120554;27;45366;-62
2023/03/07 06:11:50;;;;;;;;;10.67;8.00;;;;;6.53;83.71;99623.53;5120196;27;46457;-62
2023/03/07 06:14:15;;;;;;;;;10.67;9.00;;;;;6.55;83.43;99625.22;5120134;27;45378;-62
2023/03/07 06:16:40;;;;;;;;;7.33;5.00;;;;;6.44;83.55;99596.69;5120415;27;45284;-62
2023/03/07 06:19:06;;;;;;;;;9.67;7.33;;;;;6.57;83.94;99619.94;5120379;27;45380;-62
2023/03/07 06:21:31;;;;;;;;;8.67;6.33;;;;;6.54;83.27;99609.56;5120061;27;45465;-62
2023/03/07 06:23:56;;;;;;;;;6.67;4.67;;;;;6.58;82.96;99613.81;5118702;27;45368;-62
2023/03/07 06:26:22;;;;;;;;;5.67;3.00;;;;;6.53;82.77;99603.44;5120029;27;45706;-62
2023/03/07 06:28:47;;;;;;;;;12.33;9.67;;;;;6.43;82.65;99588.88;5120254;27;45443;-62
2023/03/07 06:31:15;;;;;;;;;8.00;7.67;;;;;6.61;82.40;99614.59;5120111;27;46603;-62
2023/03/07 06:33:41;;;;;;;;;14.00;5.33;;;;;6.52;82.77;99599.13;5119744;27;45425;-61
2023/03/07 06:36:09;;;;;;;;;10.33;7.00;;;;;6.66;82.41;99618.84;5119925;27;45416;-61
2023/03/07 06:38:34;;;;;;;;;11.33;10.67;;;;;6.65;81.96;99610.16;5119902;27;45362;-61
2023/03/07 06:40:59;;;;;;;;;8.33;5.67;;;;;6.62;81.56;99604.97;5119767;27;45458;-61
2023/03/07 06:43:25;;;;;;;;;5.33;4.00;;;;;6.60;81.68;99589.31;5120076;27;45245;-61
2023/03/07 06:45:50;;;;;;;;;6.67;6.67;;;;;6.72;81.24;99614.31;5119742;27;45238;-61
2023/03/07 06:48:16;;;;;;;;;7.67;4.67;;;;;6.72;81.30;99610.84;5119258;27;45271;-61
2023/03/07 06:50:42;;;;;;;;;7.00;7.00;;;;;6.70;81.42;99610.03;5119177;27;45401;-61
2023/03/07 06:53:07;;;;;;;;;10.67;5.67;;;;;6.76;81.08;99613.34;5119370;27;45303;-60
2023/03/07 06:55:33;;;;;;;;;4.67;3.67;;;;;6.77;81.16;99616.84;5119939;27;45421;-61
2023/03/07 06:57:58;;;;;;;;;5.00;4.00;;;;;6.82;81.08;99622.78;5119437;27;45283;-61
2023/03/07 07:00:24;;;;;;;;;3.33;3.33;;;;;6.80;81.02;99608.91;5119375;27;45449;-62
2023/03/07 07:02:49;;;;;;;;;6.67;5.00;;;;;6.76;81.29;99607.25;5118988;27;45417;-61
2023/03/07 07:05:14;;;;;;;;;8.67;5.00;;;;;6.86;82.20;99624.44;5119556;27;45266;-62
2023/03/07 07:07:40;;;;;;;;;5.00;5.00;;;;;6.85;82.00;99620.09;5119114;27;45460;-62
2023/03/07 07:10:05;;;;;;;;;8.33;8.00;;;;;6.85;82.01;99627.09;5119127;27;45490;-62
2023/03/07 07:12:30;;;;;;;;;8.33;7.67;;;;;6.86;83.08;99629.66;5119591;27;46310;-62
2023/03/07 07:14:56;;;;;;;;;6.67;5.33;;;;;6.83;82.27;99619.28;5119078;27;45476;-62
2023/03/07 07:17:21;;;;;;;;;6.33;5.00;;;;;6.87;82.85;99620.94;5119258;27;45457;-61
2023/03/07 07:19:46;;;;;;;;;2.00;2.00;;;;;6.93;83.20;99633.84;5119209;27;46525;-62
2023/03/07 07:22:16;;;;;;;;;10.33;9.00;;;;;6.94;84.43;99627.72;5118886;27;45406;-62
2023/03/07 07:24:42;;;;;;;;;3.33;3.33;;;;;6.96;82.67;99631.16;5119112;27;45326;-62
2023/03/07 07:27:07;;;;;;;;;2.67;2.00;;;;;6.90;83.02;99625.22;5119088;27;45282;-62
2023/03/07 07:29:33;;;;;;;;;4.00;3.67;;;;;6.96;82.67;99625.06;5118940;27;45424;-62
2023/03/07 07:31:58;;;;;;;;;3.00;3.00;;;;;7.03;83.47;99631.84;5119085;27;45295;-62
2023/03/07 07:34:23;;;;;;;;;5.00;5.00;;;;;7.00;83.45;99617.97;5118958;27;45212;-62
2023/03/07 07:36:49;;;;;;;;;4.00;3.00;;;;;7.03;82.44;99613.53;5119251;27;45280;-62
2023/03/07 07:39:16;;;;;;;;;1.00;1.00;;;;;7.13;82.99;99624.59;5118756;27;47216;-62
2023/03/07 07:41:41;;;;;;;;;4.00;3.00;;;;;7.14;83.04;99627.22;5118837;27;45303;-62
2023/03/07 07:44:06;;;;;;;;;4.33;3.33;;;;;7.06;82.16;99613.44;5119112;27;45393;-62
2023/03/07 07:46:32;;;;;;;;;2.25;2.25;;;;;7.17;81.46;99631.47;5119213;27;45325;-62
2023/03/07 07:48:57;;;;;;;;;2.00;2.00;;;;;7.14;81.99;99636.78;5118648;27;46969;-62
2023/03/07 07:51:22;;;;;;;;;1.67;1.00;;;;;6.99;81.40;99618.91;5118630;27;45369;-62
2023/03/07 07:53:48;;;;;;;;;3.67;3.67;;;;;7.04;81.03;99632.69;5118994;27;45702;-62
2023/03/07 07:56:13;;;;;;;;;4.00;4.00;;;;;7.03;81.24;99641.44;5118991;27;45441;-62
2023/03/07 07:58:39;;;;;;;;;3.33;2.33;;;;;7.02;81.21;99634.53;5118614;27;46291;-62
2023/03/07 08:01:19;;;;;;;;;1.00;1.00;;;;;6.97;81.69;99629.38;5118339;27;45339;-62
2023/03/07 08:03:45;;;;;;;;;3.00;3.00;;;;;6.91;81.97;99617.34;5118675;27;45371;-62
2023/03/07 08:06:11;;;;;;;;;1.50;1.00;;;;;6.82;81.85;99614.94;5118663;27;45323;-62
2023/03/07 08:08:37;;;;;;;;;2.33;1.00;;;;;6.79;81.89;99608.03;5117117;27;47432;-62
2023/03/07 08:11:03;;;;;;;;;0.00;0.00;;;;;6.82;82.68;99621.94;5118129;27;45578;-61
2023/03/07 08:13:28;;;;;;;;;1.00;1.00;;;;;6.72;82.65;99616.94;5118562;27;45402;-61
2023/03/07 08:15:53;;;;;;;;;1.50;1.50;;;;;6.57;83.36;99597.25;5118649;27;45468;-61
2023/03/07 08:18:19;;;;;;;;;2.00;2.00;;;;;6.73;84.11;99633.50;5118001;27;45402;-61
2023/03/07 08:20:45;;;;;;;;;2.33;2.33;;;;;6.71;85.74;99637.91;5118283;27;45821;-61
2023/03/07 08:23:10;;;;;;;;;2.75;2.00;;;;;6.72;84.26;99627.38;5118344;27;45276;-61
2023/03/07 08:25:36;;;;;;;;;1.00;1.00;;;;;6.67;83.84;99631.91;5118416;27;45289;-61
2023/03/07 08:28:03;;;;;;;;;2.25;1.00;;;;;6.70;85.62;99620.50;5118112;27;45609;-61
2023/03/07 08:30:31;;;;;;;;;3.00;3.00;;;;;6.72;84.16;99600.38;5118257;27;45260;-61
2023/03/07 08:32:57;;;;;;;;;3.00;3.00;;;;;6.82;83.77;99609.72;5117934;27;45607;-61
2023/03/07 08:35:24;;;;;;;;;2.00;2.00;;;;;6.89;84.63;99600.81;5118428;27;45374;-61
2023/03/07 08:37:53;;;;;;;;;8.33;6.33;;;;;7.01;84.01;99604.84;5116876;27;46791;-61
2023/03/07 08:40:19;;;;;;;;;2.00;2.00;;;;;7.09;84.34;99599.44;5118252;27;45376;-61
2023/03/07 08:42:45;;;;;;;;;4.33;3.00;;;;;7.17;84.05;99594.81;5117742;27;45244;-61
2023/03/07 08:45:10;;;;;;;;;2.67;2.67;;;;;7.03;83.93;99568.16;5118368;27;45405;-61
2023/03/07 08:47:36;;;;;;;;;8.67;5.67;;;;;7.31;83.03;99608.41;5116374;27;45496;-62
2023/03/07 08:50:02;;;;;;;;;4.00;4.00;;;;;7.41;84.47;99602.91;5117530;27;45433;-61
2023/03/07 08:52:28;;;;;;;;;4.00;4.00;;;;;7.50;83.44;99594.78;5117845;27;45304;-61
2023/03/07 08:54:53;;;;;;;;;10.33;9.00;;;;;7.58;83.71;99600.66;5117954;27;45412;-61
2023/03/07 08:57:18;;;;;;;;;8.33;8.33;;;;;7.65;82.89;99604.84;5117802;27;45569;-61
2023/03/07 08:59:44;;;;;;;;;10.00;9.00;;;;;7.73;82.59;99604.59;5117626;27;45376;-61
2023/03/07 09:02:10;;;;;;;;;11.67;10.00;;;;;7.77;82.56;99601.00;5117822;27;45305;-61
2023/03/07 09:04:35;;;;;;;;;10.33;10.33;;;;;7.79;83.46;99587.84;5117899;27;45538;-61
2023/03/07 09:07:01;;;;;;;;;8.67;6.67;;;;;7.91;82.36;99603.16;5117123;27;45627;-61
2023/03/07 09:09:27;;;;;;;;;11.00;7.00;;;;;7.92;82.21;99594.41;5117305;27;45335;-61
2023/03/07 09:11:53;;;;;;;;;4.00;4.00;;;;;7.88;80.89;99577.06;5118383;27;45456;-61
2023/03/07 09:14:18;;;;;;;;;7.33;7.33;;;;;7.93;80.77;99582.16;5121091;27;45298;-61
2023/03/07 09:16:43;;;;;;;;;10.00;8.67;;;;;7.96;81.34;99589.94;5121140;27;45413;-61
2023/03/07 09:19:09;;;;;;;;;5.67;5.67;;;;;7.97;80.46;99594.28;5120915;27;45339;-61
2023/03/07 09:21:34;;;;;;;;;8.00;8.00;;;;;7.89;80.11;99599.75;5121203;27;45444;-61
2023/03/07 09:24:00;;;;;;;;;8.67;8.33;;;;;7.91;80.66;99602.31;5121601;27;45303;-61
2023/03/07 09:26:25;;;;;;;;;10.67;8.00;;;;;7.89;80.21;99606.78;5120736;27;46051;-61
2023/03/07 09:28:50;;;;;;;;;11.00;10.33;;;;;7.82;81.53;99604.31;5121007;27;45412;-61
2023/03/07 09:31:16;;;;;;;;;7.00;5.00;;;;;7.86;80.89;99612.94;5121126;27;45405;-61
2023/03/07 09:33:41;;;;;;;;;6.00;4.33;;;;;7.84;80.88;99617.38;5121106;27;45453;-61
2023/03/07 09:36:10;;;;;;;;;4.75;4.00;;;;;7.81;80.52;99617.47;5120879;27;46308;-61
2023/03/07 09:38:36;;;;;;;;;1.50;1.00;;;;;7.76;81.96;99616.75;5120527;27;45262;-61
2023/03/07 09:41:29;;;;;;;;;3.00;3.00;;;;;7.75;81.12;99618.50;5121214;27;45199;-61
2023/03/07 09:44:09;;;;;;;;;3.00;3.00;;;;;7.78;80.91;99612.31;5121005;27;45315;-61
2023/03/07 09:46:40;;;;;;;;;2.25;2.25;;;;;7.78;80.94;99602.69;5120721;27;46757;-61
2023/03/07 09:49:17;;;;;;;;;3.00;3.00;;;;;7.82;80.64;99600.84;5119673;27;45494;-61
2023/03/07 09:51:45;;;;;;;;;1.00;1.00;;;;;7.78;81.88;99599.22;5120668;27;45247;-61
2023/03/07 09:54:15;;;;;;;;;2.25;2.00;;;;;7.75;81.72;99602.78;5120673;27;45570;-61
2023/03/07 09:56:53;;;;;;;;;6.00;3.00;;;;;7.78;82.95;99607.06;5120526;27;46586;-61
2023/03/07 09:59:39;;;;;;;;;4.33;4.33;;;;;7.80;81.30;99607.91;5120317;27;45315;-61
2023/03/07 10:02:42;;;;;;;;;3.67;3.00;;;;;7.82;82.65;99601.69;5120532;27;45524;-61
2023/03/07 10:05:07;;;;;;;;;1.25;1.00;;;;;7.89;81.52;99597.13;5120733;27;45423;-61
2023/03/07 10:07:34;;;;;;;;;1.50;1.50;;;;;7.98;81.51;99586.34;5120074;27;46602;-61
2023/03/07 10:10:04;;;;;;;;;1.50;1.00;;;;;8.04;82.46;99576.59;5120298;27;45307;-61
2023/03/07 10:12:47;;;;;;;;;2.25;1.25;;;;;8.25;82.60;99586.41;5120254;27;45374;-61
2023/03/07 10:15:46;;;;;;;;;3.50;2.50;;;;;8.43;81.05;99576.22;5120406;27;45450;-61
2023/03/07 10:18:42;;;;;;;;;0.75;0.75;;;;;8.59;80.12;99572.22;5076755;28;48152;-61
2023/03/07 10:21:40;;;;;;;;;12.50;12.50;;;;;8.71;79.06;99574.44;5077126;28;45233;-61
2023/03/07 10:24:30;;;;;;;;;4.50;3.00;;;;;8.75;78.92;99574.31;5062277;28;45456;-61
2023/03/07 10:27:07;;;;;;;;;4.67;3.00;;;;;8.71;78.74;99578.81;5076981;28;45489;-61
2023/03/07 10:29:53;;;;;;;;;3.00;3.00;;;;;8.65;77.99;99579.88;5076704;28;45393;-61
2023/03/07 10:32:31;;;;;;;;;4.25;3.00;;;;;8.62;78.92;99579.13;5076674;28;45390;-61
2023/03/07 10:35:01;;;;;;;;;3.00;3.00;;;;;8.55;79.37;99573.22;5076594;28;45472;-61
2023/03/07 10:37:57;;;;;;;;;7.00;4.00;;;;;8.47;79.44;99570.84;5076615;28;45261;-62
2023/03/07 10:40:32;;;;;;;;;4.25;4.25;;;;;8.39;78.77;99564.13;5076421;28;47512;-61
2023/03/07 10:42:58;;;;;;;;;10.33;9.00;;;;;8.50;80.47;99576.00;5075650;28;45500;-61
2023/03/07 10:45:28;;;;;;;;;5.75;4.75;;;;;8.57;80.20;99579.28;5076612;28;45393;-61
2023/03/07 10:47:53;;;;;;;;;19.00;15.67;;;;;8.50;80.21;99556.78;5076245;28;45404;-61
2023/03/07 10:50:43;;;;;;;;;11.33;8.00;;;;;8.52;79.81;99563.72;5076146;28;45556;-62
2023/03/07 10:53:24;;;;;;;;;10.33;10.00;;;;;8.56;80.30;99571.47;5075636;28;45413;-61
2023/03/07 10:55:49;;;;;;;;;5.00;5.00;;;;;8.57;80.03;99565.28;5111845;27;45473;-61
2023/03/07 10:58:18;;;;;;;;;9.67;6.00;;;;;8.55;79.93;99567.97;5119806;27;45505;-61
2023/03/07 11:00:45;;;;;;;;;5.00;5.00;;;;;8.46;80.01;99555.16;5119245;27;46441;-61
2023/03/07 11:03:28;;;;;;;;;9.50;6.75;;;;;8.45;79.17;99564.81;5119128;27;45480;-61
2023/03/07 11:05:53;;;;;;;;;5.00;5.00;;;;;8.37;79.90;99577.28;5119440;27;45329;-61
2023/03/07 11:08:26;;;;;;;;;8.33;6.00;;;;;8.35;79.86;99564.22;5119375;27;45359;-61
2023/03/07 11:10:51;;;;;;;;;11.67;9.33;;;;;8.33;79.45;99566.03;5119008;27;46718;-61
2023/03/07 11:13:19;;;;;;;;;4.00;4.00;;;;;8.33;79.95;99570.41;5119208;27;45219;-61
2023/03/07 11:15:45;;;;;;;;;7.33;5.00;;;;;8.29;79.74;99561.81;5119450;27;45236;-61
2023/03/07 11:18:29;;;;;;;;;9.67;6.00;;;;;8.38;79.73;99576.38;5119459;27;45407;-61
2023/03/07 11:20:56;;;;;;;;;4.25;3.00;;;;;8.40;79.27;99573.72;5118922;27;47367;-62
2023/03/07 11:23:29;;;;;;;;;5.00;3.00;;;;;8.39;79.21;99582.47;5118703;27;45328;-62
2023/03/07 11:25:57;;;;;;;;;8.50;4.00;;;;;8.33;79.26;99580.91;5119114;27;45332;-62
2023/03/07 11:28:34;;;;;;;;;9.00;7.00;;;;;8.33;78.84;99587.00;5119409;27;45357;-62
2023/03/07 11:31:34;;;;;;;;;15.00;10.67;;;;;8.25;78.54;99586.41;5119027;27;46313;-62
2023/03/07 11:34:08;;;;;;;;;15.67;15.00;;;;;8.20;78.72;99601.41;5075626;28;45362;-62
2023/03/07 11:36:36;;;;;;;;;17.67;14.33;;;;;8.15;78.91;99603.34;5075405;28;45305;-62